Port Stanley — V7EE9 — position and weather

sailwx.info

Track history (hours):
 
Tides and Currents Weather Stations Pressure Air Temp Water Temp Dewpoint Dewpoint Depression Visibility Wind Speed Wind Dir Waves Ship Positions

Port Stanley

Last reported at 2014-Jul-31 08:28 UTC. Time now 2014-Aug-01 03:46 UTC.
Position N 24°45' E 119°30'.

Length 182 m; draft 12.1 m.

Type: Tanker. MMSI: 538090299.

Date/timePositionNaut miles runAvg speedWind from/ knotsBaromVisibWave heightAir tempDewpointWater temp
2014-Jul-31 08:28N 24°45' E 119°30'1112.0
2014-Jul-31 07:33N 24°38' E 119°20'1311.8
2014-Jul-31 06:28N 24°32' E 119°08'1111.8
2014-Jul-31 05:33N 24°27' E 118°58'1212.4
2014-Jul-31 04:33N 24°20' E 118°46'1312.9
2014-Jul-31 03:33N 24°13' E 118°34'1313.2
2014-Jul-31 02:32N 24°04' E 118°23'1313.2
2014-Jul-31 01:33N 23°54' E 118°14'1313.0
2014-Jul-31 00:33N 23°44' E 118°05'1312.8
2014-Jul-30 23:33N 23°34' E 117°56'1212.1
2014-Jul-30 22:33N 23°25' E 117°48'3511.5
2014-Jul-30 19:30N 22°53' E 117°32'  
2014-Jul-25 20:18N 01°15' E 104°11'912.0
2014-Jul-25 19:33N 01°16' E 104°02'2 1.8
2014-Jul-25 18:31N 01°17' E 104°00'0 0.0
2014-Jul-25 17:28N 01°17' E 104°00'0 0.0
2014-Jul-25 15:28N 01°17' E 104°00'0 0.0
2014-Jul-25 07:19N 01°17' E 104°00'3 4.1
2014-Jul-25 06:33N 01°16' E 103°57'2 2.3
2014-Jul-25 05:32N 01°13' E 103°57'1 0.8
2014-Jul-25 04:33N 01°13' E 103°56'3 2.6
2014-Jul-25 03:33N 01°12' E 103°54'  
2014-Jul-22 23:30N 01°14' E 103°42'10 2.4
2014-Jul-22 19:27N 01°12' E 103°51'7 8.3
2014-Jul-22 18:33N 01°16' E 103°58'4 3.9
2014-Jul-22 17:29N 01°16' E 104°02'  
Track history (hours):
 
Tides and Currents Weather Stations Pressure Air Temp Water Temp Dewpoint Dewpoint Depression Visibility Wind Speed Wind Dir Waves Ship Positions

Port Stanley

Last reported at 2014-Jul-31 08:28 UTC. Time now 2014-Aug-01 03:46 UTC.
Position N 24°45' E 119°30'.

Length 182 m; draft 12.1 m.

Type: Tanker. MMSI: 538090299.

Date/timePositionNaut miles runAvg speedWind from/ knotsBaromVisibWave heightAir tempDewpointWater temp
2014-Jul-31 08:28N 24°45' E 119°30'1112.0
2014-Jul-31 07:33N 24°38' E 119°20'1311.8
2014-Jul-31 06:28N 24°32' E 119°08'1111.8
2014-Jul-31 05:33N 24°27' E 118°58'1212.4
2014-Jul-31 04:33N 24°20' E 118°46'1312.9
2014-Jul-31 03:33N 24°13' E 118°34'1313.2
2014-Jul-31 02:32N 24°04' E 118°23'1313.2
2014-Jul-31 01:33N 23°54' E 118°14'1313.0
2014-Jul-31 00:33N 23°44' E 118°05'1312.8
2014-Jul-30 23:33N 23°34' E 117°56'1212.1
2014-Jul-30 22:33N 23°25' E 117°48'3511.5
2014-Jul-30 19:30N 22°53' E 117°32'  
2014-Jul-25 20:18N 01°15' E 104°11'912.0
2014-Jul-25 19:33N 01°16' E 104°02'2 1.8
2014-Jul-25 18:31N 01°17' E 104°00'0 0.0
2014-Jul-25 17:28N 01°17' E 104°00'0 0.0
2014-Jul-25 15:28N 01°17' E 104°00'0 0.0
2014-Jul-25 07:19N 01°17' E 104°00'3 4.1
2014-Jul-25 06:33N 01°16' E 103°57'2 2.3
2014-Jul-25 05:32N 01°13' E 103°57'1 0.8
2014-Jul-25 04:33N 01°13' E 103°56'3 2.6
2014-Jul-25 03:33N 01°12' E 103°54'  
2014-Jul-22 23:30N 01°14' E 103°42'10 2.4
2014-Jul-22 19:27N 01°12' E 103°51'7 8.3
2014-Jul-22 18:33N 01°16' E 103°58'4 3.9
2014-Jul-22 17:29N 01°16' E 104°02'  

Dump ship's entire track history